West Annville, Pennsylvania
Current Conditions -  °F | °C
As of 1:58 AM on Thursday 18 Dec 2014 (Local Time) from KMUI Reporting Station
Clear Clear  
Wind Chill: 25°   Ceiling: Unl
Heat Index: 34°   Visibility: 10mi
Dew Point: 18°   Wind: 13mph
Humidity: 53%   Direction: 270°W
Pressure: 30.03"   Gusts: 24mph
Location:  40.3819°N, 76.5718°W
Report Text: KMUI 180658Z AUTO 27011G21KT 10SM CLR 01/M08 A3003 RMK AO2 PK WND 27026/02 RAE0620 SLP176 P0000 T00101077
Loading
Personal Weather Stations






























Interactive Weather Map New forecast layout! Learn more

10-Day Weather Forecast

Advertisements
Track Severe Weather on mobile